首页
METAR-TAF:

METAR-TAF

机场 :

瓦岱國際機場

永珍, 老挝

纬度: 17-57N, 经度: 102-34E, 海拔: 171米

当前天气观测

该预报发布于4小时和17分钟前的16:00 UTC
风速2节,风向西北
温度 25°C
湿度 94%
气压 1012 hPa
能見度: 3000
少量云层高于10000英尺
轻雾

METAR: VLVT 141600Z 32002KT 3000 BR FEW100 25/24 Q1012 NOSIG

时间: 03:17 (20:17 UTC)

预报

该预报发布于3小时和17分钟前的17:00 UTC
预报有效从14日的 18点(UTC)到 15日的 18点(UTC)
风速4节,风向西北
能見度: 3000
少量云层高于1600英尺
散云层高于10000英尺
轻雾
短暂存在
从 15日的 00点(UTC)到 15日的 05点(UTC)
能見度: 5000
散云层高于4000英尺
散云层高于10000英尺
轻雾

TAF: VLVT 141700Z 1418/1518 32004KT 3000 BR FEW016 SCT100 TEMPO 1500/1505 5000 BR SCT040 SCT100

超过4000个机场的气象观测和天气预报(METAR&TAF报告)。

可查询的气象台以黄色和红色小点在地图上表示。

将鼠标移到小点上方,可查看气象台名称。

然后点击查看天气观测和预报。

如需切换地图:点击带黑十字的绿色按钮放大地图;点击带横线的绿色按钮缩小地图;或者点击绿色箭头查看邻近地区的地图。


METAR-TAF: